createdAt,value
2018-03-29T00:00:56.340Z,100340.78
2018-03-29T00:03:24.439Z,100344.50
2018-03-29T00:05:52.634Z,100354.30
2018-03-29T00:08:20.733Z,100351.06
2018-03-29T00:10:48.861Z,100349.39
2018-03-29T00:13:17.211Z,100349.33
2018-03-29T00:15:45.323Z,100352.95
2018-03-29T00:18:13.403Z,100358.97
2018-03-29T00:20:41.539Z,100345.95
2018-03-29T00:23:09.759Z,100350.05
2018-03-29T00:25:37.854Z,100354.19
2018-03-29T00:28:06.252Z,100350.58
2018-03-29T00:30:34.362Z,100341.68
2018-03-29T00:33:02.493Z,100340.88
2018-03-29T00:35:31.114Z,100341.09
2018-03-29T00:37:59.231Z,100340.12
2018-03-29T00:40:27.322Z,100341.68
2018-03-29T00:42:55.415Z,100341.14
2018-03-29T00:45:23.543Z,100350.52
2018-03-29T00:47:52.537Z,100340.05
2018-03-29T00:50:20.650Z,100343.50
2018-03-29T00:52:48.745Z,100349.67
2018-03-29T00:55:16.879Z,100349.13
2018-03-29T00:57:44.969Z,100349.87
2018-03-29T01:00:13.067Z,100351.00
2018-03-29T01:02:41.601Z,100356.76
2018-03-29T01:05:09.674Z,100356.31
2018-03-29T01:07:37.770Z,100362.55
2018-03-29T01:10:05.866Z,100362.87
2018-03-29T01:12:34.365Z,100360.80
2018-03-29T01:15:02.467Z,100356.20
2018-03-29T01:17:30.634Z,100365.41
2018-03-29T01:19:58.746Z,100365.84
2018-03-29T01:22:27.205Z,100356.00
2018-03-29T01:24:55.301Z,100362.55
2018-03-29T01:27:24.190Z,100359.36
2018-03-29T01:29:52.477Z,100363.41
2018-03-29T01:32:32.361Z,100366.28
2018-03-29T01:35:00.965Z,100367.76
2018-03-29T01:37:29.058Z,100364.89
2018-03-29T01:39:57.326Z,100357.03
2018-03-29T01:42:25.422Z,100359.98
2018-03-29T01:44:53.517Z,100364.13
2018-03-29T01:47:21.657Z,100357.33
2018-03-29T01:49:50.090Z,100364.20
2018-03-29T01:52:18.191Z,100368.66
2018-03-29T01:54:46.309Z,100370.97
2018-03-29T01:57:14.411Z,100370.59
2018-03-29T01:59:42.501Z,100368.75
2018-03-29T02:02:10.607Z,100372.95
2018-03-29T02:04:38.752Z,100371.52
2018-03-29T02:07:06.844Z,100370.07
2018-03-29T02:09:34.995Z,100381.90
2018-03-29T02:12:03.155Z,100374.06
2018-03-29T02:14:31.249Z,100379.48
2018-03-29T02:16:59.369Z,100384.50
2018-03-29T02:19:27.476Z,100380.39
2018-03-29T02:21:56.266Z,100378.86
2018-03-29T02:24:25.131Z,100375.98
2018-03-29T02:26:53.240Z,100369.86
2018-03-29T02:29:22.287Z,100374.22
2018-03-29T02:31:50.380Z,100372.89
2018-03-29T02:34:18.843Z,100372.67
2018-03-29T02:36:46.956Z,100371.50
2018-03-29T02:39:15.155Z,100379.18
2018-03-29T02:41:43.254Z,100374.59
2018-03-29T02:44:12.551Z,100376.98
2018-03-29T02:46:40.678Z,100376.29
2018-03-29T02:49:08.777Z,100371.98
2018-03-29T02:51:36.871Z,100372.84
2018-03-29T02:54:04.981Z,100376.45
2018-03-29T02:56:33.085Z,100372.96
2018-03-29T02:59:01.183Z,100374.97
2018-03-29T03:01:29.563Z,100382.53
2018-03-29T03:03:57.833Z,100383.92
2018-03-29T03:06:25.962Z,100383.02
2018-03-29T03:08:54.995Z,100383.48
2018-03-29T03:11:23.114Z,100387.80
2018-03-29T03:26:41.225Z,100377.31
2018-03-29T03:29:09.333Z,100382.27
2018-03-29T03:31:37.470Z,100383.98
2018-03-29T03:34:05.600Z,100383.23
2018-03-29T03:36:33.705Z,100382.32
2018-03-29T03:39:02.740Z,100389.34
2018-03-29T03:41:30.857Z,100389.28
2018-03-29T03:43:59.003Z,100392.64
2018-03-29T03:46:27.577Z,100398.75
2018-03-29T03:48:55.685Z,100400.03
2018-03-29T03:51:24.037Z,100401.31
2018-03-29T03:53:52.142Z,100399.92
2018-03-29T03:56:20.299Z,100405.98
2018-03-29T03:58:48.413Z,100410.58
2018-03-29T04:01:16.517Z,100407.10
2018-03-29T04:03:44.663Z,100414.41
2018-03-29T04:06:12.786Z,100413.96
2018-03-29T04:08:41.232Z,100416.52
2018-03-29T04:11:09.703Z,100419.50
2018-03-29T04:13:37.825Z,100415.98
2018-03-29T04:16:06.232Z,100421.34
2018-03-29T04:18:34.665Z,100420.98
2018-03-29T04:21:02.780Z,100419.80
2018-03-29T04:23:30.861Z,100421.17
2018-03-29T04:25:58.985Z,100417.14
2018-03-29T04:41:17.133Z,100421.89
2018-03-29T04:43:45.550Z,100420.63
2018-03-29T04:46:13.631Z,100425.34
2018-03-29T04:48:42.488Z,100422.48
2018-03-29T04:51:10.613Z,100416.11
2018-03-29T04:53:39.651Z,100415.89
2018-03-29T04:56:07.865Z,100425.74
2018-03-29T04:58:36.250Z,100415.26
2018-03-29T05:01:04.345Z,100419.78
2018-03-29T05:03:32.460Z,100417.39
2018-03-29T05:06:00.554Z,100416.20
2018-03-29T05:08:28.734Z,100412.43
2018-03-29T05:10:56.851Z,100411.17
2018-03-29T05:13:24.951Z,100412.97
2018-03-29T05:15:53.080Z,100414.13
2018-03-29T05:18:21.207Z,100414.19
2018-03-29T05:20:49.315Z,100409.41
2018-03-29T05:23:18.451Z,100409.23
2018-03-29T05:25:46.773Z,100412.28
2018-03-29T05:28:14.865Z,100417.70
2018-03-29T05:30:44.249Z,100416.80
2018-03-29T05:33:12.355Z,100413.97
2018-03-29T05:35:40.547Z,100413.97
2018-03-29T05:38:09.005Z,100415.63
2018-03-29T05:40:37.658Z,100419.61
2018-03-29T05:43:08.285Z,100417.53
2018-03-29T05:45:36.401Z,100420.27
2018-03-29T05:48:04.510Z,100424.89
2018-03-29T05:50:32.613Z,100433.87
2018-03-29T05:53:01.257Z,100428.33
2018-03-29T05:55:29.470Z,100431.99
2018-03-29T05:57:57.573Z,100441.20
2018-03-29T06:00:25.682Z,100439.82
2018-03-29T06:02:53.890Z,100447.47
2018-03-29T06:05:21.997Z,100443.87
2018-03-29T06:07:50.126Z,100442.18
2018-03-29T06:10:18.227Z,100446.41
2018-03-29T06:12:46.370Z,100445.87
2018-03-29T06:15:16.391Z,100441.32
2018-03-29T06:17:44.565Z,100438.18
2018-03-29T06:20:12.920Z,100448.75
2018-03-29T06:22:41.038Z,100453.58
2018-03-29T06:25:09.153Z,100457.97
2018-03-29T06:27:37.908Z,100460.89
2018-03-29T06:30:06.210Z,100458.82
2018-03-29T06:32:34.308Z,100462.71
2018-03-29T06:35:02.478Z,100457.86
2018-03-29T06:37:30.598Z,100461.73
2018-03-29T06:39:58.708Z,100463.45
2018-03-29T06:42:26.813Z,100467.53
2018-03-29T06:44:54.909Z,100463.87
2018-03-29T06:47:23.039Z,100469.69
2018-03-29T06:49:51.130Z,100475.32
2018-03-29T06:52:19.266Z,100472.09
2018-03-29T06:54:47.390Z,100474.81
2018-03-29T06:57:15.474Z,100471.55
2018-03-29T06:59:44.186Z,100473.14
2018-03-29T07:02:12.334Z,100483.30
2018-03-29T07:04:40.446Z,100477.03
2018-03-29T07:07:08.546Z,100478.04
2018-03-29T07:09:37.136Z,100479.44
2018-03-29T07:12:05.287Z,100477.41
2018-03-29T07:14:33.938Z,100479.92
2018-03-29T07:17:02.056Z,100476.04
2018-03-29T07:19:31.204Z,100476.25
2018-03-29T07:21:59.293Z,100476.08
2018-03-29T07:24:27.466Z,100483.89
2018-03-29T07:26:55.574Z,100478.56
2018-03-29T07:29:24.633Z,100482.30
2018-03-29T07:31:52.726Z,100487.69
2018-03-29T07:47:15.861Z,100501.86
2018-03-29T07:49:43.965Z,100504.52
2018-03-29T07:52:12.099Z,100504.47
2018-03-29T07:54:40.206Z,100499.52
2018-03-29T07:57:08.306Z,100505.00
2018-03-29T07:59:36.540Z,100494.14
2018-03-29T08:02:04.673Z,100501.05
2018-03-29T08:04:32.815Z,100502.23
2018-03-29T08:07:00.923Z,100506.98
2018-03-29T08:09:29.032Z,100506.27
2018-03-29T08:11:57.130Z,100509.27
2018-03-29T08:14:25.256Z,100514.53
2018-03-29T08:16:53.648Z,100510.96
2018-03-29T08:19:21.812Z,100520.39
2018-03-29T08:21:49.965Z,100517.63
2018-03-29T08:24:19.057Z,100518.74
2018-03-29T08:26:47.199Z,100527.52
2018-03-29T08:29:16.102Z,100529.33
2018-03-29T08:31:44.195Z,100524.53
2018-03-29T08:34:12.282Z,100531.25
2018-03-29T08:36:40.386Z,100531.83
2018-03-29T08:39:08.759Z,100531.09
2018-03-29T08:41:36.878Z,100533.86
2018-03-29T08:44:05.118Z,100528.80
2018-03-29T08:46:33.190Z,100530.42
2018-03-29T08:49:01.305Z,100528.70
2018-03-29T08:51:29.428Z,100528.41
2018-03-29T08:53:57.522Z,100532.84
2018-03-29T08:56:25.626Z,100537.16
2018-03-29T08:58:53.752Z,100534.54
2018-03-29T09:01:21.834Z,100541.14
2018-03-29T09:03:50.746Z,100538.53
2018-03-29T09:06:18.830Z,100531.92
2018-03-29T09:08:47.012Z,100530.63
2018-03-29T09:11:15.072Z,100526.69
2018-03-29T09:13:43.176Z,100527.25
2018-03-29T09:16:12.130Z,100524.66
2018-03-29T09:18:40.249Z,100538.08
2018-03-29T09:21:09.182Z,100535.55
2018-03-29T09:23:37.291Z,100539.27
2018-03-29T09:26:05.416Z,100549.03
2018-03-29T09:28:33.514Z,100540.62
2018-03-29T09:31:01.630Z,100537.72
2018-03-29T09:33:29.729Z,100547.62
2018-03-29T09:35:57.834Z,100544.22
2018-03-29T09:38:25.946Z,100547.44
2018-03-29T09:40:54.270Z,100543.64
2018-03-29T09:43:22.387Z,100544.98
2018-03-29T09:45:50.492Z,100534.67
2018-03-29T09:48:18.598Z,100540.80
2018-03-29T09:50:46.749Z,100540.33
2018-03-29T09:53:15.999Z,100530.73
2018-03-29T09:55:44.127Z,100527.95
2018-03-29T09:58:12.226Z,100533.70
2018-03-29T10:00:40.353Z,100534.25
2018-03-29T10:03:09.278Z,100538.61
2018-03-29T10:05:38.192Z,100533.34
2018-03-29T10:08:06.354Z,100531.21
2018-03-29T10:10:34.458Z,100537.21
2018-03-29T10:13:02.570Z,100532.42
2018-03-29T10:15:30.704Z,100536.09
2018-03-29T10:17:58.796Z,100538.95
2018-03-29T10:20:26.894Z,100538.46
2018-03-29T10:22:55.030Z,100528.43
2018-03-29T10:38:13.154Z,100545.07
2018-03-29T10:40:41.262Z,100540.00
2018-03-29T10:43:10.158Z,100541.13
2018-03-29T10:45:39.068Z,100541.89
2018-03-29T10:48:07.183Z,100539.41
2018-03-29T10:50:35.322Z,100541.70
2018-03-29T10:53:03.450Z,100540.87
2018-03-29T10:55:31.580Z,100538.66
2018-03-29T10:57:59.695Z,100539.75
2018-03-29T11:13:22.897Z,100525.84
2018-03-29T11:15:51.214Z,100523.09
2018-03-29T11:18:19.315Z,100534.22
2018-03-29T11:20:48.040Z,100534.63
2018-03-29T11:23:16.170Z,100524.29
2018-03-29T11:25:44.275Z,100528.62
2018-03-29T11:28:14.056Z,100522.80
2018-03-29T11:30:42.157Z,100516.97
2018-03-29T11:33:11.135Z,100519.52
2018-03-29T11:35:41.830Z,100522.31
2018-03-29T11:38:10.016Z,100523.80
2018-03-29T11:40:38.177Z,100520.25
2018-03-29T11:43:06.307Z,100523.42
2018-03-29T11:45:35.334Z,100527.28
2018-03-29T11:48:03.726Z,100534.54
2018-03-29T11:50:31.823Z,100534.90
2018-03-29T11:52:59.944Z,100534.21
2018-03-29T11:55:28.042Z,100531.33
2018-03-29T11:57:56.212Z,100536.72
2018-03-29T12:00:24.347Z,100527.87
2018-03-29T12:15:42.458Z,100526.55
2018-03-29T12:18:10.608Z,100522.78
2018-03-29T12:20:38.751Z,100518.14
2018-03-29T12:23:06.846Z,100515.73
2018-03-29T12:25:34.972Z,100520.55
2018-03-29T12:28:03.079Z,100524.78
2018-03-29T12:30:31.308Z,100521.28
2018-03-29T12:32:59.429Z,100521.44
2018-03-29T12:35:27.543Z,100515.45
2018-03-29T12:37:55.730Z,100511.21
2018-03-29T12:40:24.118Z,100519.76
2018-03-29T12:42:52.243Z,100521.50
2018-03-29T12:45:20.998Z,100524.87
2018-03-29T12:47:49.087Z,100522.28
2018-03-29T12:50:17.538Z,100510.03
2018-03-29T12:52:45.627Z,100512.34
2018-03-29T12:55:26.085Z,100522.47
2018-03-29T12:58:12.882Z,100524.11
2018-03-29T13:00:45.940Z,100522.39
2018-03-29T13:03:14.034Z,100520.38
2018-03-29T13:05:43.354Z,100523.68
2018-03-29T13:08:11.478Z,100524.87
2018-03-29T13:10:39.620Z,100524.03
2018-03-29T13:15:44.188Z,100513.19
2018-03-29T13:18:12.286Z,100512.98
2018-03-29T13:20:40.414Z,100510.78
2018-03-29T13:23:08.568Z,100505.28
2018-03-29T13:25:36.733Z,100500.80
2018-03-29T13:28:04.857Z,100504.67
2018-03-29T13:30:33.021Z,100505.30
2018-03-29T13:33:01.806Z,100504.87
2018-03-29T13:35:30.195Z,100503.55
2018-03-29T13:37:58.346Z,100502.70
2018-03-29T13:40:26.732Z,100502.42
2018-03-29T13:42:55.151Z,100499.69
2018-03-29T13:45:23.266Z,100505.09
2018-03-29T13:47:51.507Z,100495.68
2018-03-29T13:50:19.607Z,100501.73
2018-03-29T13:52:48.447Z,100498.83
2018-03-29T13:55:17.385Z,100489.54
2018-03-29T13:57:45.498Z,100489.05
2018-03-29T14:00:14.118Z,100488.42
2018-03-29T14:02:42.270Z,100483.83
2018-03-29T14:05:10.435Z,100484.59
2018-03-29T14:07:38.640Z,100479.32
2018-03-29T14:10:06.828Z,100484.67
2018-03-29T14:12:34.950Z,100478.29
2018-03-29T14:15:03.045Z,100473.41
2018-03-29T14:17:31.486Z,100470.23
2018-03-29T14:19:59.606Z,100470.73
2018-03-29T14:22:27.817Z,100468.84
2018-03-29T14:24:55.907Z,100455.95
2018-03-29T14:27:24.010Z,100458.98
2018-03-29T14:29:52.498Z,100457.70
2018-03-29T14:32:20.744Z,100456.02
2018-03-29T14:34:48.850Z,100448.41
2018-03-29T14:37:17.084Z,100452.91
2018-03-29T14:39:45.257Z,100452.48
2018-03-29T14:42:13.509Z,100447.34
2018-03-29T14:44:41.653Z,100447.13
2018-03-29T14:47:10.095Z,100445.80
2018-03-29T14:49:38.172Z,100441.43
2018-03-29T14:52:06.321Z,100439.27
2018-03-29T14:54:34.414Z,100432.41
2018-03-29T14:57:03.491Z,100436.22
2018-03-29T14:59:31.965Z,100434.21
2018-03-29T15:02:00.150Z,100424.25
2018-03-29T15:04:28.367Z,100417.14
2018-03-29T15:06:56.798Z,100423.96
2018-03-29T15:09:24.920Z,100421.42
2018-03-29T15:11:53.765Z,100419.20
2018-03-29T15:14:21.867Z,100419.95
2018-03-29T15:16:49.977Z,100425.16
2018-03-29T15:19:18.078Z,100416.05
2018-03-29T15:21:46.216Z,100423.41
2018-03-29T15:24:14.261Z,100415.02
2018-03-29T15:26:42.362Z,100417.69
2018-03-29T15:29:10.483Z,100409.61
2018-03-29T15:31:38.633Z,100414.03
2018-03-29T15:34:06.701Z,100402.63
2018-03-29T15:36:40.091Z,100405.16
2018-03-29T15:39:08.277Z,100403.45
2018-03-29T15:41:36.371Z,100403.72
2018-03-29T15:44:04.457Z,100404.14
2018-03-29T15:46:32.549Z,100396.72
2018-03-29T15:49:00.687Z,100390.31
2018-03-29T15:51:28.775Z,100392.30
2018-03-29T15:53:56.891Z,100389.59
2018-03-29T15:56:25.043Z,100387.33
2018-03-29T15:58:53.139Z,100385.05
2018-03-29T16:01:22.186Z,100386.21
2018-03-29T16:03:50.979Z,100382.77
2018-03-29T16:06:19.068Z,100380.80
2018-03-29T16:08:47.492Z,100385.44
2018-03-29T16:11:15.627Z,100380.20
2018-03-29T16:13:43.727Z,100390.80
2018-03-29T16:16:12.704Z,100391.20
2018-03-29T16:18:43.211Z,100385.66
2018-03-29T16:21:11.326Z,100394.63
2018-03-29T16:23:39.445Z,100393.27
2018-03-29T16:26:07.565Z,100389.05
2018-03-29T16:28:35.691Z,100388.83
2018-03-29T16:31:04.171Z,100381.85
2018-03-29T16:33:32.275Z,100381.56
2018-03-29T16:36:00.678Z,100387.78
2018-03-29T16:38:28.770Z,100382.86
2018-03-29T16:40:56.868Z,100382.32
2018-03-29T16:43:25.054Z,100384.12
2018-03-29T16:45:53.239Z,100395.28
2018-03-29T16:48:21.373Z,100382.38
2018-03-29T16:50:49.516Z,100382.88
2018-03-29T16:53:22.881Z,100395.82
2018-03-29T16:55:51.112Z,100393.30
2018-03-29T16:58:19.218Z,100393.52
2018-03-29T17:00:47.318Z,100398.44
2018-03-29T17:03:16.158Z,100392.26
2018-03-29T17:05:44.295Z,100389.41
2018-03-29T17:08:13.742Z,100385.83
2018-03-29T17:10:41.925Z,100386.73
2018-03-29T17:13:10.641Z,100391.27
2018-03-29T17:15:38.895Z,100393.86
2018-03-29T17:18:06.983Z,100392.92
2018-03-29T17:20:35.078Z,100407.94
2018-03-29T17:23:03.273Z,100403.06
2018-03-29T17:25:31.472Z,100402.74
2018-03-29T17:27:59.594Z,100404.70
2018-03-29T17:30:27.736Z,100411.98
2018-03-29T17:32:55.846Z,100415.63
2018-03-29T17:35:24.494Z,100412.18
2018-03-29T17:37:52.598Z,100412.55
2018-03-29T17:40:20.752Z,100408.88
2018-03-29T17:42:48.844Z,100410.48
2018-03-29T17:45:16.979Z,100417.88
2018-03-29T17:47:45.080Z,100413.91
2018-03-29T17:50:14.054Z,100416.88
2018-03-29T17:52:42.156Z,100409.67
2018-03-29T17:55:10.262Z,100414.13
2018-03-29T17:57:39.631Z,100414.91
2018-03-29T18:00:07.825Z,100417.23
2018-03-29T18:02:35.946Z,100417.69
2018-03-29T18:05:04.383Z,100414.84
2018-03-29T18:07:33.468Z,100413.94
2018-03-29T18:10:01.653Z,100413.37
2018-03-29T18:12:29.752Z,100419.64
2018-03-29T18:14:57.854Z,100419.64
2018-03-29T18:17:26.597Z,100417.09
2018-03-29T18:19:54.733Z,100419.72
2018-03-29T18:22:22.853Z,100419.72
2018-03-29T18:24:51.232Z,100419.13
2018-03-29T18:27:20.628Z,100424.00
2018-03-29T18:29:48.795Z,100431.27
2018-03-29T18:32:16.916Z,100434.34
2018-03-29T18:34:45.804Z,100431.20
2018-03-29T18:37:13.936Z,100424.08
2018-03-29T18:39:42.267Z,100424.70
2018-03-29T18:42:10.435Z,100421.68
2018-03-29T18:44:38.602Z,100428.80
2018-03-29T18:47:06.695Z,100426.61
2018-03-29T18:49:34.839Z,100425.30
2018-03-29T18:52:02.958Z,100425.91
2018-03-29T18:54:31.165Z,100420.37
2018-03-29T18:56:59.253Z,100423.53
2018-03-29T18:59:28.201Z,100420.96
2018-03-29T19:01:56.311Z,100420.45
2018-03-29T19:04:24.428Z,100427.71
2018-03-29T19:06:52.561Z,100421.23
2018-03-29T19:09:20.657Z,100422.27
2018-03-29T19:11:49.554Z,100413.84
2018-03-29T19:14:17.682Z,100418.42
2018-03-29T19:16:45.837Z,100416.81
2018-03-29T19:19:13.934Z,100416.73
2018-03-29T19:21:42.349Z,100414.59
2018-03-29T19:24:11.078Z,100407.56
2018-03-29T19:26:39.177Z,100412.77
2018-03-29T19:29:07.577Z,100417.19
2018-03-29T19:31:35.973Z,100418.39
2018-03-29T19:34:04.269Z,100421.09
2018-03-29T19:36:32.545Z,100424.04
2018-03-29T19:39:01.579Z,100420.31
2018-03-29T19:41:29.701Z,100421.15
2018-03-29T19:43:58.849Z,100418.42
2018-03-29T19:46:27.851Z,100422.38
2018-03-29T19:48:55.992Z,100428.19
2018-03-29T19:51:24.103Z,100425.52
2018-03-29T19:53:52.947Z,100428.09
2018-03-29T19:56:21.077Z,100425.47
2018-03-29T19:58:49.215Z,100431.42
2018-03-29T20:01:17.801Z,100435.49
2018-03-29T20:03:45.964Z,100434.75
2018-03-29T20:06:14.121Z,100431.93
2018-03-29T20:08:42.222Z,100439.11
2018-03-29T20:11:10.335Z,100431.91
2018-03-29T20:13:39.134Z,100442.21
2018-03-29T20:16:07.304Z,100439.03
2018-03-29T20:18:35.421Z,100448.47
2018-03-29T20:21:03.589Z,100455.88
2018-03-29T20:23:32.379Z,100451.78
2018-03-29T20:42:06.248Z,100467.64
2018-03-29T20:44:34.344Z,100469.59
2018-03-29T20:47:02.474Z,100462.78
2018-03-29T20:49:30.598Z,100456.42
2018-03-29T20:51:58.692Z,100468.00
2018-03-29T20:54:26.899Z,100467.16
2018-03-29T20:56:55.051Z,100459.36
2018-03-29T20:59:23.147Z,100460.97
2018-03-29T21:01:52.344Z,100461.70
2018-03-29T21:04:20.402Z,100468.48
2018-03-29T21:06:49.694Z,100463.08
2018-03-29T21:09:17.803Z,100462.75
2018-03-29T21:11:45.911Z,100458.63
2018-03-29T21:14:13.994Z,100451.36
2018-03-29T21:16:42.109Z,100448.61
2018-03-29T21:19:10.331Z,100450.52
2018-03-29T21:21:39.293Z,100452.66
2018-03-29T21:24:08.174Z,100447.56
2018-03-29T21:26:36.271Z,100443.66
2018-03-29T21:29:04.440Z,100435.78
2018-03-29T21:31:32.614Z,100442.25
2018-03-29T21:34:00.703Z,100435.07
2018-03-29T21:36:28.950Z,100433.90
2018-03-29T21:39:02.002Z,100431.59
2018-03-29T21:41:30.097Z,100430.52
2018-03-29T21:43:58.191Z,100432.06
2018-03-29T21:46:26.308Z,100419.41
2018-03-29T21:48:54.461Z,100417.43
2018-03-29T21:51:22.550Z,100407.34
2018-03-29T21:53:50.655Z,100413.37
2018-03-29T21:56:18.758Z,100411.54
2018-03-29T21:58:46.861Z,100407.11
2018-03-29T22:01:14.989Z,100405.29
2018-03-29T22:03:43.082Z,100406.34
2018-03-29T22:06:11.188Z,100405.25
2018-03-29T22:21:29.296Z,100387.53
2018-03-29T22:23:57.370Z,100377.78
2018-03-29T22:26:25.501Z,100371.41
2018-03-29T22:28:53.561Z,100377.59
2018-03-29T22:31:21.653Z,100378.09
2018-03-29T22:33:49.777Z,100366.98
2018-03-29T22:36:18.404Z,100371.67
2018-03-29T22:38:47.818Z,100368.31
2018-03-29T22:41:15.937Z,100367.78
2018-03-29T22:43:44.842Z,100366.34
2018-03-29T22:46:13.696Z,100366.63
2018-03-29T22:48:41.786Z,100359.93
2018-03-29T22:51:09.886Z,100357.26
2018-03-29T22:53:38.681Z,100358.52
2018-03-29T22:56:07.664Z,100350.78
2018-03-29T22:58:35.846Z,100347.86
2018-03-29T23:01:03.919Z,100344.36
2018-03-29T23:03:32.035Z,100351.06
2018-03-29T23:06:00.214Z,100351.76
2018-03-29T23:08:28.298Z,100353.88
2018-03-29T23:10:56.423Z,100348.72
2018-03-29T23:15:58.779Z,100353.34
2018-03-29T23:18:26.918Z,100358.95
2018-03-29T23:20:55.035Z,100355.05
2018-03-29T23:23:23.141Z,100368.51
2018-03-29T23:25:51.242Z,100365.50
2018-03-29T23:28:19.360Z,100363.38
2018-03-29T23:30:47.493Z,100353.98
2018-03-29T23:33:15.593Z,100364.28
2018-03-29T23:35:44.462Z,100366.13
2018-03-29T23:38:15.602Z,100357.41
2018-03-29T23:40:43.748Z,100356.39
2018-03-29T23:43:11.822Z,100358.48
2018-03-29T23:45:39.909Z,100359.70
2018-03-29T23:48:08.003Z,100354.75
2018-03-29T23:50:36.097Z,100356.48
2018-03-29T23:53:04.333Z,100350.13
2018-03-29T23:55:32.511Z,100354.38
2018-03-29T23:58:12.331Z,100356.48
